sensor_id;sensor_type;location;lat;lon;timestamp;pressure;altitude;pressure_sealevel;temperature;humidity
39075;BME280;24826;52.070;20.970;2022-10-17T00:01:25;61722.78;;;-147.04;100.00
39075;BME280;24826;52.070;20.970;2022-10-17T00:04:09;61714.84;;;-147.04;100.00
39075;BME280;24826;52.070;20.970;2022-10-17T00:06:53;61730.75;;;-147.04;100.00
39075;BME280;24826;52.070;20.970;2022-10-17T00:09:41;61726.75;;;-147.04;100.00
39075;BME280;24826;52.070;20.970;2022-10-17T00:12:26;61746.66;;;-147.04;100.00
39075;BME280;24826;52.070;20.970;2022-10-17T00:15:14;61730.75;;;-147.04;100.00
39075;BME280;24826;52.070;20.970;2022-10-17T00:17:59;61698.91;;;-147.04;100.00
39075;BME280;24826;52.070;20.970;2022-10-17T00:20:43;61720.78;;;-147.04;100.00
39075;BME280;24826;52.070;20.970;2022-10-17T00:23:28;61710.84;;;-147.04;100.00
39075;BME280;24826;52.070;20.970;2022-10-17T00:26:15;61746.66;;;-147.04;100.00
39075;BME280;24826;52.070;20.970;2022-10-17T00:28:59;61730.75;;;-147.04;100.00
39075;BME280;24826;52.070;20.970;2022-10-17T00:31:43;61730.75;;;-147.04;100.00
39075;BME280;24826;52.070;20.970;2022-10-17T00:34:28;61738.69;;;-147.04;100.00
39075;BME280;24826;52.070;20.970;2022-10-17T00:37:12;61694.94;;;-147.04;100.00
39075;BME280;24826;52.070;20.970;2022-10-17T00:39:57;61730.75;;;-147.04;100.00
39075;BME280;24826;52.070;20.970;2022-10-17T00:42:41;61734.72;;;-147.04;100.00
39075;BME280;24826;52.070;20.970;2022-10-17T00:45:29;61734.72;;;-147.04;100.00
39075;BME280;24826;52.070;20.970;2022-10-17T00:48:14;61690.97;;;-147.04;100.00
39075;BME280;24826;52.070;20.970;2022-10-17T00:50:59;61730.75;;;-147.04;100.00
39075;BME280;24826;52.070;20.970;2022-10-17T00:53:43;61718.81;;;-147.04;100.00
39075;BME280;24826;52.070;20.970;2022-10-17T00:56:28;61702.91;;;-147.04;100.00
39075;BME280;24826;52.070;20.970;2022-10-17T00:59:15;61750.63;;;-147.04;100.00
39075;BME280;24826;52.070;20.970;2022-10-17T01:02:04;61714.84;;;-147.04;100.00
39075;BME280;24826;52.070;20.970;2022-10-17T01:04:50;61718.81;;;-147.04;100.00
39075;BME280;24826;52.070;20.970;2022-10-17T01:07:37;61722.78;;;-147.04;100.00
39075;BME280;24826;52.070;20.970;2022-10-17T01:10:31;61710.84;;;-147.04;100.00
39075;BME280;24826;52.070;20.970;2022-10-17T01:13:24;61724.78;;;-147.04;100.00
39075;BME280;24826;52.070;20.970;2022-10-17T01:16:18;61710.84;;;-147.04;100.00
39075;BME280;24826;52.070;20.970;2022-10-17T01:19:29;61667.09;;;-147.04;100.00
39075;BME280;24826;52.070;20.970;2022-10-17T01:22:39;61708.88;;;-147.04;100.00
39075;BME280;24826;52.070;20.970;2022-10-17T01:31:15;61726.75;;;-147.04;100.00
39075;BME280;24826;52.070;20.970;2022-10-17T01:34:04;61744.66;;;-147.04;100.00
39075;BME280;24826;52.070;20.970;2022-10-17T01:37:18;61758.59;;;-147.04;100.00
39075;BME280;24826;52.070;20.970;2022-10-17T01:40:10;61738.69;;;-147.04;100.00
39075;BME280;24826;52.070;20.970;2022-10-17T01:43:11;61718.81;;;-147.04;100.00
39075;BME280;24826;52.070;20.970;2022-10-17T01:46:00;61736.72;;;-147.04;100.00
39075;BME280;24826;52.070;20.970;2022-10-17T01:48:46;61758.59;;;-147.04;100.00
39075;BME280;24826;52.070;20.970;2022-10-17T01:51:41;61730.75;;;-147.04;100.00
39075;BME280;24826;52.070;20.970;2022-10-17T01:54:44;61758.59;;;-147.04;100.00
39075;BME280;24826;52.070;20.970;2022-10-17T01:57:35;61810.28;;;-147.04;100.00
39075;BME280;24826;52.070;20.970;2022-10-17T02:00:22;61774.50;;;-147.04;100.00
39075;BME280;24826;52.070;20.970;2022-10-17T02:03:13;61742.66;;;-147.04;100.00
39075;BME280;24826;52.070;20.970;2022-10-17T02:05:58;61754.59;;;-147.04;100.00
39075;BME280;24826;52.070;20.970;2022-10-17T02:08:47;61750.63;;;-147.04;100.00
39075;BME280;24826;52.070;20.970;2022-10-17T02:11:31;61746.66;;;-147.04;100.00
39075;BME280;24826;52.070;20.970;2022-10-17T02:14:47;61738.69;;;-147.04;100.00
39075;BME280;24826;52.070;20.970;2022-10-17T02:20:51;61740.69;;;-147.04;100.00
39075;BME280;24826;52.070;20.970;2022-10-17T02:27:16;61758.59;;;-147.04;100.00
39075;BME280;24826;52.070;20.970;2022-10-17T02:30:11;61734.72;;;-147.04;100.00
39075;BME280;24826;52.070;20.970;2022-10-17T02:33:04;61744.66;;;-147.04;100.00
39075;BME280;24826;52.070;20.970;2022-10-17T02:35:51;61712.84;;;-147.04;100.00
39075;BME280;24826;52.070;20.970;2022-10-17T02:38:38;61718.81;;;-147.04;100.00
39075;BME280;24826;52.070;20.970;2022-10-17T02:41:23;61712.84;;;-147.04;100.00
39075;BME280;24826;52.070;20.970;2022-10-17T02:44:09;61696.94;;;-147.04;100.00
39075;BME280;24826;52.070;20.970;2022-10-17T02:50:08;61714.84;;;-147.04;100.00
39075;BME280;24826;52.070;20.970;2022-10-17T02:53:00;61687.00;;;-147.04;100.00
39075;BME280;24826;52.070;20.970;2022-10-17T02:55:52;61724.78;;;-147.04;100.00
39075;BME280;24826;52.070;20.970;2022-10-17T02:58:38;61706.88;;;-147.04;100.00
39075;BME280;24826;52.070;20.970;2022-10-17T03:01:23;61710.84;;;-147.04;100.00
39075;BME280;24826;52.070;20.970;2022-10-17T03:04:10;61702.91;;;-147.04;100.00
39075;BME280;24826;52.070;20.970;2022-10-17T03:06:55;61675.06;;;-147.04;100.00
39075;BME280;24826;52.070;20.970;2022-10-17T03:09:39;61683.00;;;-147.04;100.00
39075;BME280;24826;52.070;20.970;2022-10-17T03:12:24;61690.97;;;-147.04;100.00
39075;BME280;24826;52.070;20.970;2022-10-17T03:15:08;61687.00;;;-147.04;100.00
39075;BME280;24826;52.070;20.970;2022-10-17T03:17:53;61683.00;;;-147.04;100.00
39075;BME280;24826;52.070;20.970;2022-10-17T03:20:37;61690.97;;;-147.04;100.00
39075;BME280;24826;52.070;20.970;2022-10-17T03:23:21;61734.72;;;-147.04;100.00
39075;BME280;24826;52.070;20.970;2022-10-17T03:26:06;61679.03;;;-147.04;100.00
39075;BME280;24826;52.070;20.970;2022-10-17T03:28:51;61694.94;;;-147.04;100.00
39075;BME280;24826;52.070;20.970;2022-10-17T03:31:35;61766.53;;;-147.04;100.00
39075;BME280;24826;52.070;20.970;2022-10-17T03:34:21;61702.91;;;-147.04;100.00
39075;BME280;24826;52.070;20.970;2022-10-17T03:37:08;61724.78;;;-147.04;100.00
39075;BME280;24826;52.070;20.970;2022-10-17T03:39:53;61714.84;;;-147.04;100.00
39075;BME280;24826;52.070;20.970;2022-10-17T03:42:37;61714.84;;;-147.04;100.00
39075;BME280;24826;52.070;20.970;2022-10-17T03:45:22;61706.88;;;-147.04;100.00
39075;BME280;24826;52.070;20.970;2022-10-17T03:48:06;61716.81;;;-147.04;100.00
39075;BME280;24826;52.070;20.970;2022-10-17T03:50:51;61698.91;;;-147.04;100.00
39075;BME280;24826;52.070;20.970;2022-10-17T03:53:35;61704.88;;;-147.04;100.00
39075;BME280;24826;52.070;20.970;2022-10-17T03:56:24;61712.84;;;-147.04;100.00
39075;BME280;24826;52.070;20.970;2022-10-17T03:59:12;61720.78;;;-147.04;100.00
39075;BME280;24826;52.070;20.970;2022-10-17T04:01:56;61738.69;;;-147.04;100.00
39075;BME280;24826;52.070;20.970;2022-10-17T04:04:41;61712.84;;;-147.04;100.00
39075;BME280;24826;52.070;20.970;2022-10-17T04:07:25;61728.75;;;-147.04;100.00
39075;BME280;24826;52.070;20.970;2022-10-17T04:10:10;61726.75;;;-147.04;100.00
39075;BME280;24826;52.070;20.970;2022-10-17T04:12:55;61724.78;;;-147.04;100.00
39075;BME280;24826;52.070;20.970;2022-10-17T04:15:39;61718.81;;;-147.04;100.00
39075;BME280;24826;52.070;20.970;2022-10-17T04:18:24;61694.94;;;-147.04;100.00
39075;BME280;24826;52.070;20.970;2022-10-17T04:21:09;61726.75;;;-147.04;100.00
39075;BME280;24826;52.070;20.970;2022-10-17T04:23:55;61720.78;;;-147.04;100.00
39075;BME280;24826;52.070;20.970;2022-10-17T04:26:40;61718.81;;;-147.04;100.00
39075;BME280;24826;52.070;20.970;2022-10-17T04:29:25;61722.78;;;-147.04;100.00
39075;BME280;24826;52.070;20.970;2022-10-17T04:32:10;61690.97;;;-147.04;100.00
39075;BME280;24826;52.070;20.970;2022-10-17T04:34:54;61687.00;;;-147.04;100.00
39075;BME280;24826;52.070;20.970;2022-10-17T04:37:38;61708.88;;;-147.04;100.00
39075;BME280;24826;52.070;20.970;2022-10-17T04:40:23;61722.78;;;-147.04;100.00
39075;BME280;24826;52.070;20.970;2022-10-17T04:43:07;61679.03;;;-147.04;100.00
39075;BME280;24826;52.070;20.970;2022-10-17T04:45:51;61667.09;;;-147.04;100.00
39075;BME280;24826;52.070;20.970;2022-10-17T04:48:36;61679.03;;;-147.04;100.00
39075;BME280;24826;52.070;20.970;2022-10-17T04:51:21;61675.06;;;-147.04;100.00
39075;BME280;24826;52.070;20.970;2022-10-17T04:54:05;61700.91;;;-147.04;100.00
39075;BME280;24826;52.070;20.970;2022-10-17T04:56:50;61675.06;;;-147.04;100.00
39075;BME280;24826;52.070;20.970;2022-10-17T04:59:34;61657.16;;;-147.04;100.00
39075;BME280;24826;52.070;20.970;2022-10-17T05:02:18;61706.88;;;-147.04;100.00
39075;BME280;24826;52.070;20.970;2022-10-17T05:05:03;61659.16;;;-147.04;100.00
39075;BME280;24826;52.070;20.970;2022-10-17T05:07:47;61804.31;;;-147.04;100.00
39075;BME280;24826;52.070;20.970;2022-10-17T05:10:38;61671.09;;;-147.04;100.00
39075;BME280;24826;52.070;20.970;2022-10-17T05:13:23;61647.22;;;-147.04;100.00
39075;BME280;24826;52.070;20.970;2022-10-17T05:16:07;61659.16;;;-147.04;100.00
39075;BME280;24826;52.070;20.970;2022-10-17T05:18:54;61675.06;;;-147.04;100.00
39075;BME280;24826;52.070;20.970;2022-10-17T05:21:39;61690.97;;;-147.04;100.00
39075;BME280;24826;52.070;20.970;2022-10-17T05:24:24;61671.09;;;-147.04;100.00
39075;BME280;24826;52.070;20.970;2022-10-17T05:27:08;61681.03;;;-147.04;100.00
39075;BME280;24826;52.070;20.970;2022-10-17T05:29:52;61647.22;;;-147.04;100.00
39075;BME280;24826;52.070;20.970;2022-10-17T05:32:37;61688.97;;;-147.04;100.00
39075;BME280;24826;52.070;20.970;2022-10-17T05:35:21;61710.84;;;-147.04;100.00
39075;BME280;24826;52.070;20.970;2022-10-17T05:38:06;61679.03;;;-147.04;100.00
39075;BME280;24826;52.070;20.970;2022-10-17T05:40:50;61702.91;;;-147.04;100.00
39075;BME280;24826;52.070;20.970;2022-10-17T05:43:34;61675.06;;;-147.04;100.00
39075;BME280;24826;52.070;20.970;2022-10-17T05:46:19;61681.03;;;-147.04;100.00
39075;BME280;24826;52.070;20.970;2022-10-17T05:49:03;61716.81;;;-147.04;100.00
39075;BME280;24826;52.070;20.970;2022-10-17T05:51:48;61647.22;;;-147.04;100.00
39075;BME280;24826;52.070;20.970;2022-10-17T05:54:32;61702.91;;;-147.04;100.00
39075;BME280;24826;52.070;20.970;2022-10-17T05:57:16;61685.00;;;-147.04;100.00
39075;BME280;24826;52.070;20.970;2022-10-17T06:00:00;61692.97;;;-147.04;100.00
39075;BME280;24826;52.070;20.970;2022-10-17T06:02:47;61706.88;;;-147.04;100.00
39075;BME280;24826;52.070;20.970;2022-10-17T06:05:34;61698.91;;;-147.04;100.00
39075;BME280;24826;52.070;20.970;2022-10-17T06:08:18;61714.84;;;-147.04;100.00
39075;BME280;24826;52.070;20.970;2022-10-17T06:11:03;61877.91;;;-147.04;100.00
39075;BME280;24826;52.070;20.970;2022-10-17T06:13:47;61728.75;;;-147.04;100.00
39075;BME280;24826;52.070;20.970;2022-10-17T06:16:32;61718.81;;;-147.04;100.00
39075;BME280;24826;52.070;20.970;2022-10-17T06:19:16;61679.03;;;-147.04;100.00
39075;BME280;24826;52.070;20.970;2022-10-17T06:22:00;61710.84;;;-147.04;100.00
39075;BME280;24826;52.070;20.970;2022-10-17T06:24:45;61818.25;;;-147.04;100.00
39075;BME280;24826;52.070;20.970;2022-10-17T06:27:29;61718.81;;;-147.04;100.00
39075;BME280;24826;52.070;20.970;2022-10-17T06:30:13;61742.66;;;-147.04;100.00
39075;BME280;24826;52.070;20.970;2022-10-17T06:32:58;61708.88;;;-147.04;100.00
39075;BME280;24826;52.070;20.970;2022-10-17T06:35:42;61778.47;;;-147.04;100.00
39075;BME280;24826;52.070;20.970;2022-10-17T06:38:26;61724.78;;;-147.04;100.00
39075;BME280;24826;52.070;20.970;2022-10-17T06:41:15;61669.09;;;-147.04;100.00
39075;BME280;24826;52.070;20.970;2022-10-17T06:44:01;61736.72;;;-147.04;100.00
39075;BME280;24826;52.070;20.970;2022-10-17T06:46:52;61710.84;;;-147.04;100.00
39075;BME280;24826;52.070;20.970;2022-10-17T06:49:36;61710.84;;;-147.04;100.00
39075;BME280;24826;52.070;20.970;2022-10-17T06:52:21;61786.41;;;-147.04;100.00
39075;BME280;24826;52.070;20.970;2022-10-17T06:55:05;61762.56;;;-147.04;100.00
39075;BME280;24826;52.070;20.970;2022-10-17T06:57:50;61734.72;;;-147.04;100.00
39075;BME280;24826;52.070;20.970;2022-10-17T07:00:37;61762.56;;;-147.04;100.00
39075;BME280;24826;52.070;20.970;2022-10-17T07:03:21;61722.78;;;-147.04;100.00
39075;BME280;24826;52.070;20.970;2022-10-17T07:06:06;61732.72;;;-147.04;100.00
39075;BME280;24826;52.070;20.970;2022-10-17T07:08:50;61754.59;;;-147.04;100.00
39075;BME280;24826;52.070;20.970;2022-10-17T07:11:35;61754.59;;;-147.04;100.00
39075;BME280;24826;52.070;20.970;2022-10-17T07:14:20;61754.59;;;-147.04;100.00
39075;BME280;24826;52.070;20.970;2022-10-17T07:17:04;61754.59;;;-147.04;100.00
39075;BME280;24826;52.070;20.970;2022-10-17T07:19:48;61784.44;;;-147.04;100.00
39075;BME280;24826;52.070;20.970;2022-10-17T07:22:33;61772.50;;;-147.04;100.00
39075;BME280;24826;52.070;20.970;2022-10-17T07:25:18;61778.47;;;-147.04;100.00
39075;BME280;24826;52.070;20.970;2022-10-17T07:28:02;61778.47;;;-147.04;100.00
39075;BME280;24826;52.070;20.970;2022-10-17T07:30:47;61792.38;;;-147.04;100.00
39075;BME280;24826;52.070;20.970;2022-10-17T07:33:31;61778.47;;;-147.04;100.00
39075;BME280;24826;52.070;20.970;2022-10-17T07:36:16;61768.53;;;-147.04;100.00
39075;BME280;24826;52.070;20.970;2022-10-17T07:39:01;61850.06;;;-147.04;100.00
39075;BME280;24826;52.070;20.970;2022-10-17T07:41:48;61782.44;;;-147.04;100.00
39075;BME280;24826;52.070;20.970;2022-10-17T07:44:32;61826.19;;;-147.04;100.00
39075;BME280;24826;52.070;20.970;2022-10-17T07:47:16;61836.13;;;-147.04;100.00
39075;BME280;24826;52.070;20.970;2022-10-17T07:50:02;61798.34;;;-147.04;100.00
39075;BME280;24826;52.070;20.970;2022-10-17T07:52:47;61873.91;;;-147.04;100.00
39075;BME280;24826;52.070;20.970;2022-10-17T07:55:31;61838.13;;;-147.04;100.00
39075;BME280;24826;52.070;20.970;2022-10-17T07:58:16;61877.91;;;-147.04;100.00
39075;BME280;24826;52.070;20.970;2022-10-17T08:01:03;61850.06;;;-147.04;100.00
39075;BME280;24826;52.070;20.970;2022-10-17T08:03:47;61840.13;;;-147.04;100.00
39075;BME280;24826;52.070;20.970;2022-10-17T08:06:31;61832.16;;;-147.04;100.00
39075;BME280;24826;52.070;20.970;2022-10-17T08:09:15;61850.06;;;-147.04;100.00
39075;BME280;24826;52.070;20.970;2022-10-17T08:12:00;61941.53;;;-147.04;100.00
39075;BME280;24826;52.070;20.970;2022-10-17T08:14:44;61901.75;;;-147.04;100.00
39075;BME280;24826;52.070;20.970;2022-10-17T08:17:28;61901.75;;;-147.04;100.00
39075;BME280;24826;52.070;20.970;2022-10-17T08:20:13;61832.16;;;-147.04;100.00
39075;BME280;24826;52.070;20.970;2022-10-17T08:22:57;61865.97;;;-147.04;100.00
39075;BME280;24826;52.070;20.970;2022-10-17T08:25:42;61897.78;;;-147.04;100.00
39075;BME280;24826;52.070;20.970;2022-10-17T08:28:26;61993.25;;;-147.04;100.00
39075;BME280;24826;52.070;20.970;2022-10-17T08:31:17;61891.81;;;-147.04;100.00
39075;BME280;24826;52.070;20.970;2022-10-17T08:34:01;61893.81;;;-147.04;100.00
39075;BME280;24826;52.070;20.970;2022-10-17T08:36:45;61921.66;;;-147.04;100.00
39075;BME280;24826;52.070;20.970;2022-10-17T08:39:30;61929.59;;;-147.04;100.00
39075;BME280;24826;52.070;20.970;2022-10-17T08:42:33;61915.69;;;-147.04;100.00
39075;BME280;24826;52.070;20.970;2022-10-17T08:48:30;61921.66;;;-147.04;100.00
39075;BME280;24826;52.070;20.970;2022-10-17T08:51:22;61951.47;;;-147.04;100.00
39075;BME280;24826;52.070;20.970;2022-10-17T08:54:19;61907.72;;;-147.04;100.00
39075;BME280;24826;52.070;20.970;2022-10-17T08:57:10;61945.50;;;-147.04;100.00
39075;BME280;24826;52.070;20.970;2022-10-17T08:59:55;61917.66;;;-147.04;100.00
39075;BME280;24826;52.070;20.970;2022-10-17T09:05:52;62060.84;;;-147.04;100.00
39075;BME280;24826;52.070;20.970;2022-10-17T09:09:08;61929.59;;;-147.04;100.00
39075;BME280;24826;52.070;20.970;2022-10-17T09:12:14;61925.63;;;-147.04;100.00
39075;BME280;24826;52.070;20.970;2022-10-17T09:18:14;61913.69;;;-147.04;100.00
39075;BME280;24826;52.070;20.970;2022-10-17T09:24:08;61913.69;;;-147.04;100.00
39075;BME280;24826;52.070;20.970;2022-10-17T09:26:55;61929.59;;;-147.04;100.00
39075;BME280;24826;52.070;20.970;2022-10-17T09:29:40;61907.72;;;-147.04;100.00
39075;BME280;24826;52.070;20.970;2022-10-17T09:32:27;61925.63;;;-147.04;100.00
39075;BME280;24826;52.070;20.970;2022-10-17T09:35:15;61941.53;;;-147.04;100.00
39075;BME280;24826;52.070;20.970;2022-10-17T09:38:00;61929.59;;;-147.04;100.00
39075;BME280;24826;52.070;20.970;2022-10-17T09:40:49;61971.38;;;-147.04;100.00
39075;BME280;24826;52.070;20.970;2022-10-17T09:43:34;61925.63;;;-147.04;100.00
39075;BME280;24826;52.070;20.970;2022-10-17T09:46:35;61929.59;;;-147.04;100.00
39075;BME280;24826;52.070;20.970;2022-10-17T09:49:33;61929.59;;;-147.04;100.00
39075;BME280;24826;52.070;20.970;2022-10-17T09:52:33;61941.53;;;-147.04;100.00
39075;BME280;24826;52.070;20.970;2022-10-17T09:55:21;61925.63;;;-147.04;100.00
39075;BME280;24826;52.070;20.970;2022-10-17T09:58:09;61919.66;;;-147.04;100.00
39075;BME280;24826;52.070;20.970;2022-10-17T10:01:15;61913.69;;;-147.04;100.00
39075;BME280;24826;52.070;20.970;2022-10-17T10:07:05;61897.78;;;-147.04;100.00
39075;BME280;24826;52.070;20.970;2022-10-17T10:09:56;61929.59;;;-147.04;100.00
39075;BME280;24826;52.070;20.970;2022-10-17T10:12:41;61955.47;;;-147.04;100.00
39075;BME280;24826;52.070;20.970;2022-10-17T10:15:46;61937.56;;;-147.04;100.00
39075;BME280;24826;52.070;20.970;2022-10-17T10:18:34;61887.84;;;-147.04;100.00
39075;BME280;24826;52.070;20.970;2022-10-17T10:21:21;61925.63;;;-147.04;100.00
39075;BME280;24826;52.070;20.970;2022-10-17T10:27:01;61973.34;;;-147.04;100.00
39075;BME280;24826;52.070;20.970;2022-10-17T10:29:51;61961.41;;;-147.04;100.00
39075;BME280;24826;52.070;20.970;2022-10-17T10:32:36;61943.53;;;-147.04;100.00
39075;BME280;24826;52.070;20.970;2022-10-17T10:35:38;61953.47;;;-147.04;100.00
39075;BME280;24826;52.070;20.970;2022-10-17T10:38:23;61969.38;;;-147.04;100.00
39075;BME280;24826;52.070;20.970;2022-10-17T10:41:09;61965.41;;;-147.04;100.00
39075;BME280;24826;52.070;20.970;2022-10-17T10:43:54;61941.53;;;-147.04;100.00
39075;BME280;24826;52.070;20.970;2022-10-17T10:46:39;61957.44;;;-147.04;100.00
39075;BME280;24826;52.070;20.970;2022-10-17T10:49:31;61973.34;;;-147.04;100.00
39075;BME280;24826;52.070;20.970;2022-10-17T10:52:26;61943.53;;;-147.04;100.00
39075;BME280;24826;52.070;20.970;2022-10-17T10:55:21;61947.50;;;-147.04;100.00
39075;BME280;24826;52.070;20.970;2022-10-17T11:01:40;61933.59;;;-147.04;100.00
39075;BME280;24826;52.070;20.970;2022-10-17T11:04:43;61977.34;;;-147.04;100.00
39075;BME280;24826;52.070;20.970;2022-10-17T11:13:40;62001.19;;;-147.04;100.00
39075;BME280;24826;52.070;20.970;2022-10-17T11:16:36;62013.13;;;-147.04;100.00
39075;BME280;24826;52.070;20.970;2022-10-17T11:22:30;61999.22;;;-147.04;100.00
39075;BME280;24826;52.070;20.970;2022-10-17T11:25:34;61985.28;;;-147.04;100.00
39075;BME280;24826;52.070;20.970;2022-10-17T11:28:20;61989.25;;;-147.04;100.00
39075;BME280;24826;52.070;20.970;2022-10-17T11:31:09;61997.22;;;-147.04;100.00
39075;BME280;24826;52.070;20.970;2022-10-17T11:34:02;62005.19;;;-147.04;100.00
39075;BME280;24826;52.070;20.970;2022-10-17T11:36:51;62019.09;;;-147.04;100.00
39075;BME280;24826;52.070;20.970;2022-10-17T11:42:45;62005.19;;;-147.04;100.00
39075;BME280;24826;52.070;20.970;2022-10-17T11:45:38;61993.25;;;-147.04;100.00
39075;BME280;24826;52.070;20.970;2022-10-17T11:48:26;62005.19;;;-147.04;100.00
39075;BME280;24826;52.070;20.970;2022-10-17T11:51:13;62017.09;;;-147.04;100.00
39075;BME280;24826;52.070;20.970;2022-10-17T11:54:03;61991.25;;;-147.04;100.00
39075;BME280;24826;52.070;20.970;2022-10-17T12:00:06;62037.00;;;-147.04;100.00
39075;BME280;24826;52.070;20.970;2022-10-17T12:08:58;62013.13;;;-147.04;100.00
39075;BME280;24826;52.070;20.970;2022-10-17T12:11:59;62038.97;;;-147.04;100.00
39075;BME280;24826;52.070;20.970;2022-10-17T12:14:45;62019.09;;;-147.04;100.00
39075;BME280;24826;52.070;20.970;2022-10-17T12:17:34;62019.09;;;-147.04;100.00
39075;BME280;24826;52.070;20.970;2022-10-17T12:20:27;62015.13;;;-147.04;100.00
39075;BME280;24826;52.070;20.970;2022-10-17T12:26:02;62033.00;;;-147.04;100.00
39075;BME280;24826;52.070;20.970;2022-10-17T12:28:47;62025.06;;;-147.04;100.00
39075;BME280;24826;52.070;20.970;2022-10-17T12:31:32;62056.88;;;-147.04;100.00
39075;BME280;24826;52.070;20.970;2022-10-17T12:34:18;62056.88;;;-147.04;100.00
39075;BME280;24826;52.070;20.970;2022-10-17T12:37:10;62040.97;;;-147.04;100.00
39075;BME280;24826;52.070;20.970;2022-10-17T12:39:55;62066.81;;;-147.04;100.00
39075;BME280;24826;52.070;20.970;2022-10-17T12:42:48;62056.88;;;-147.04;100.00
39075;BME280;24826;52.070;20.970;2022-10-17T12:51:23;62100.63;;;-147.04;100.00
39075;BME280;24826;52.070;20.970;2022-10-17T12:54:10;62084.72;;;-147.04;100.00
39075;BME280;24826;52.070;20.970;2022-10-17T12:56:56;62060.84;;;-147.04;100.00
39075;BME280;24826;52.070;20.970;2022-10-17T12:59:42;62076.78;;;-147.04;100.00
39075;BME280;24826;52.070;20.970;2022-10-17T13:02:28;62128.47;;;-147.04;100.00
39075;BME280;24826;52.070;20.970;2022-10-17T13:05:18;62060.84;;;-147.04;100.00
39075;BME280;24826;52.070;20.970;2022-10-17T13:08:07;62084.72;;;-147.04;100.00
39075;BME280;24826;52.070;20.970;2022-10-17T13:10:57;62074.78;;;-147.04;100.00
39075;BME280;24826;52.070;20.970;2022-10-17T13:13:48;62060.84;;;-147.04;100.00
39075;BME280;24826;52.070;20.970;2022-10-17T13:16:38;62064.84;;;-147.04;100.00
39075;BME280;24826;52.070;20.970;2022-10-17T13:19:28;62098.66;;;-147.04;100.00
39075;BME280;24826;52.070;20.970;2022-10-17T13:22:16;62116.53;;;-147.04;100.00
39075;BME280;24826;52.070;20.970;2022-10-17T13:25:13;62064.84;;;-147.04;100.00
39075;BME280;24826;52.070;20.970;2022-10-17T13:28:11;62092.69;;;-147.04;100.00
39075;BME280;24826;52.070;20.970;2022-10-17T13:30:57;62060.84;;;-147.04;100.00
39075;BME280;24826;52.070;20.970;2022-10-17T13:33:41;62070.81;;;-147.04;100.00
39075;BME280;24826;52.070;20.970;2022-10-17T13:36:27;62062.84;;;-147.04;100.00
39075;BME280;24826;52.070;20.970;2022-10-17T13:39:17;62060.84;;;-147.04;100.00
39075;BME280;24826;52.070;20.970;2022-10-17T13:42:03;62084.72;;;-147.04;100.00
39075;BME280;24826;52.070;20.970;2022-10-17T13:44:48;62052.91;;;-147.04;100.00
39075;BME280;24826;52.070;20.970;2022-10-17T13:47:35;62088.69;;;-147.04;100.00
39075;BME280;24826;52.070;20.970;2022-10-17T13:50:40;62072.78;;;-147.04;100.00
39075;BME280;24826;52.070;20.970;2022-10-17T13:53:29;62048.94;;;-147.04;100.00
39075;BME280;24826;52.070;20.970;2022-10-17T13:56:24;62192.13;;;-147.04;100.00
39075;BME280;24826;52.070;20.970;2022-10-17T13:59:25;62066.81;;;-147.04;100.00
39075;BME280;24826;52.070;20.970;2022-10-17T14:02:20;62048.94;;;-147.04;100.00
39075;BME280;24826;52.070;20.970;2022-10-17T14:05:17;62029.03;;;-147.04;100.00
39075;BME280;24826;52.070;20.970;2022-10-17T14:08:03;62042.97;;;-147.04;100.00
39075;BME280;24826;52.070;20.970;2022-10-17T14:10:47;62048.94;;;-147.04;100.00
39075;BME280;24826;52.070;20.970;2022-10-17T14:13:31;62054.91;;;-147.04;100.00
39075;BME280;24826;52.070;20.970;2022-10-17T14:16:19;62052.91;;;-147.04;100.00
39075;BME280;24826;52.070;20.970;2022-10-17T14:19:05;62072.78;;;-147.04;100.00
39075;BME280;24826;52.070;20.970;2022-10-17T14:25:04;62029.03;;;-147.04;100.00
39075;BME280;24826;52.070;20.970;2022-10-17T14:27:54;62038.97;;;-147.04;100.00
39075;BME280;24826;52.070;20.970;2022-10-17T14:30:48;62037.00;;;-147.04;100.00
39075;BME280;24826;52.070;20.970;2022-10-17T14:33:36;62038.97;;;-147.04;100.00
39075;BME280;24826;52.070;20.970;2022-10-17T14:36:29;62096.66;;;-147.04;100.00
39075;BME280;24826;52.070;20.970;2022-10-17T14:39:21;62037.00;;;-147.04;100.00
39075;BME280;24826;52.070;20.970;2022-10-17T14:42:16;62048.94;;;-147.04;100.00
39075;BME280;24826;52.070;20.970;2022-10-17T14:45:07;62037.00;;;-147.04;100.00
39075;BME280;24826;52.070;20.970;2022-10-17T14:47:58;62056.88;;;-147.04;100.00
39075;BME280;24826;52.070;20.970;2022-10-17T14:54:18;62042.97;;;-147.04;100.00
39075;BME280;24826;52.070;20.970;2022-10-17T14:57:17;62038.97;;;-147.04;100.00
39075;BME280;24826;52.070;20.970;2022-10-17T15:00:02;62084.72;;;-147.04;100.00
39075;BME280;24826;52.070;20.970;2022-10-17T15:02:47;62040.97;;;-147.04;100.00
39075;BME280;24826;52.070;20.970;2022-10-17T15:05:33;62076.78;;;-147.04;100.00
39075;BME280;24826;52.070;20.970;2022-10-17T15:08:19;62027.06;;;-147.04;100.00
39075;BME280;24826;52.070;20.970;2022-10-17T15:11:04;62060.84;;;-147.04;100.00
39075;BME280;24826;52.070;20.970;2022-10-17T15:13:49;62052.91;;;-147.04;100.00
39075;BME280;24826;52.070;20.970;2022-10-17T15:16:34;62040.97;;;-147.04;100.00
39075;BME280;24826;52.070;20.970;2022-10-17T15:19:19;62068.81;;;-147.04;100.00